Time;durP1;ratioP1;P1;durP2;ratioP2;P2;SDS_P1;SDS_P2;PMS_P1;PMS_P2;Temp;Humidity;BMP_temperature;BMP_pressure;BME280_temperature;BME280_humidity;BME280_pressure;Samples;Min_cycle;Max_cycle;Signal;HPM_P1;HPM_P2
2022/03/12 00:00:48;;;;;;;29.33;14.38;;;;;;;8.80;56.74;101267.00;5089977;28;20020;-76
2022/03/12 00:03:14;;;;;;;24.70;15.23;;;;;;;8.77;56.31;101265.41;5089966;28;20043;-76
2022/03/12 00:05:49;;;;;;;24.48;14.15;;;;;;;8.73;57.01;101263.97;5091627;28;20039;-76
2022/03/12 00:08:15;;;;;;;23.60;15.05;;;;;;;8.69;55.82;101262.50;5094013;28;20428;-75
2022/03/12 00:10:43;;;;;;;23.17;15.13;;;;;;;8.68;55.78;101270.59;5075099;28;20449;-74
2022/03/12 00:13:08;;;;;;;25.70;14.82;;;;;;;8.68;55.94;101270.59;5093814;28;20471;-75
2022/03/12 00:15:35;;;;;;;21.33;14.13;;;;;;;8.66;55.63;101276.00;5075151;28;20127;-75
2022/03/12 00:18:01;;;;;;;25.50;15.30;;;;;;;8.64;55.76;101276.13;5093474;28;20421;-75
2022/03/12 00:20:28;;;;;;;21.08;14.35;;;;;;;8.66;56.05;101283.97;5093296;28;20060;-75
2022/03/12 00:22:54;;;;;;;23.27;15.27;;;;;;;8.67;55.56;101282.97;5074923;28;20032;-75
2022/03/12 00:25:23;;;;;;;27.13;15.50;;;;;;;8.67;56.12;101284.81;5093556;28;20035;-75
2022/03/12 00:27:50;;;;;;;26.45;15.00;;;;;;;8.65;56.49;101288.41;5093617;28;20035;-75
2022/03/12 00:30:18;;;;;;;21.75;14.77;;;;;;;8.65;56.92;101295.53;5093331;28;20122;-76
2022/03/12 00:32:44;;;;;;;32.38;15.68;;;;;;;8.61;58.98;101294.06;5093165;28;20107;-74
2022/03/12 00:35:10;;;;;;;22.67;15.05;;;;;;;8.50;60.00;101294.03;5092921;28;20077;-74
2022/03/12 00:37:36;;;;;;;23.58;15.25;;;;;;;8.35;61.24;101301.28;5093507;28;20035;-74
2022/03/12 00:40:03;;;;;;;24.58;15.48;;;;;;;8.23;64.06;101305.69;5093553;28;20028;-74
2022/03/12 00:42:29;;;;;;;22.98;15.15;;;;;;;8.12;66.22;101298.50;5093214;28;20032;-75
2022/03/12 00:44:54;;;;;;;25.27;16.00;;;;;;;8.05;67.83;101302.56;5093924;28;20058;-75
2022/03/12 00:47:20;;;;;;;24.73;15.38;;;;;;;7.92;69.73;101303.44;5093527;28;20397;-75
2022/03/12 00:49:46;;;;;;;25.02;15.93;;;;;;;7.83;71.40;101308.56;5093042;28;20050;-74
2022/03/12 00:52:12;;;;;;;22.73;14.88;;;;;;;7.75;73.19;101315.25;5093595;28;20101;-75
2022/03/12 00:54:37;;;;;;;20.60;14.65;;;;;;;7.72;73.74;101312.81;5092949;28;20444;-75
2022/03/12 00:57:03;;;;;;;26.27;15.60;;;;;;;7.68;74.12;101315.81;5093470;28;20374;-75
2022/03/12 00:59:28;;;;;;;23.58;15.70;;;;;;;7.66;74.51;101321.22;5093090;28;20139;-74
2022/03/12 01:01:54;;;;;;;25.02;16.13;;;;;;;7.65;74.13;101316.84;5092507;28;20032;-74
2022/03/12 01:04:19;;;;;;;27.92;15.88;;;;;;;7.66;73.08;101315.91;5074776;28;20165;-74
2022/03/12 01:06:46;;;;;;;30.75;16.00;;;;;;;7.67;73.08;101314.94;5092970;28;20461;-74
2022/03/12 01:09:11;;;;;;;21.17;14.93;;;;;;;7.71;71.65;101313.78;5093070;28;20040;-77
2022/03/12 01:11:38;;;;;;;25.02;15.65;;;;;;;7.65;72.30;101308.91;5093147;28;20035;-77
2022/03/12 01:14:06;;;;;;;23.60;16.23;;;;;;;7.61;72.25;101312.72;5092402;28;20055;-74
2022/03/12 01:16:32;;;;;;;24.52;15.73;;;;;;;7.59;71.91;101319.94;5092407;28;20153;-75
2022/03/12 01:18:58;;;;;;;27.67;16.23;;;;;;;7.55;72.35;101318.47;5092277;28;20436;-75
2022/03/12 01:21:23;;;;;;;23.98;15.40;;;;;;;7.51;71.93;101317.84;5092849;28;20140;-76
2022/03/12 01:23:50;;;;;;;22.95;15.70;;;;;;;7.51;71.88;101323.13;5092832;28;20031;-74
2022/03/12 01:26:17;;;;;;;26.55;15.55;;;;;;;7.50;72.03;101323.25;5094506;28;20032;-75
2022/03/12 01:28:43;;;;;;;22.35;16.30;;;;;;;7.49;72.08;101324.19;5093414;28;20155;-74
2022/03/12 01:31:09;;;;;;;23.65;16.20;;;;;;;7.48;72.03;101317.19;5092703;28;20100;-74
2022/03/12 01:33:35;;;;;;;27.20;16.52;;;;;;;7.45;72.52;101315.63;5092365;28;20070;-74
2022/03/12 01:36:00;;;;;;;25.38;15.68;;;;;;;7.41;72.79;101307.03;5073652;28;20083;-75
2022/03/12 01:38:47;;;;;;;31.02;16.40;;;;;;;7.39;72.91;101311.59;5092367;28;20143;-75
2022/03/12 01:41:14;;;;;;;27.42;16.40;;;;;;;7.36;74.11;101314.47;5092227;28;20035;-76
2022/03/12 01:43:43;;;;;;;24.73;15.65;;;;;;;7.34;74.07;101316.34;5091676;28;20024;-75
2022/03/12 01:46:10;;;;;;;26.60;16.98;;;;;;;7.29;74.63;101315.00;5091733;28;20424;-75
2022/03/12 01:48:41;;;;;;;23.50;15.70;;;;;;;7.28;74.92;101310.66;5091531;28;20119;-75
2022/03/12 01:51:07;;;;;;;24.05;15.80;;;;;;;7.26;75.30;101309.91;5092013;28;20561;-75
2022/03/12 01:53:32;;;;;;;23.52;15.18;;;;;;;7.26;75.79;101315.22;5091694;28;20035;-75
2022/03/12 01:55:58;;;;;;;23.73;15.80;;;;;;;7.25;76.10;101322.28;5091436;28;20028;-75
2022/03/12 01:58:24;;;;;;;23.92;15.32;;;;;;;7.24;76.16;101315.31;5091721;28;20032;-75
2022/03/12 02:00:51;;;;;;;23.83;14.45;;;;;;;7.26;77.01;101318.69;5091308;28;20093;-74
2022/03/12 02:03:23;;;;;;;22.42;14.63;;;;;;;7.31;77.57;101319.22;5091716;28;20452;-74
2022/03/12 02:05:48;;;;;;;;;;;;;;;7.32;78.17;101328.84;5091813;28;20089;-75
2022/03/12 02:08:14;;;;;;;27.20;13.52;;;;;;;7.44;78.98;101326.31;5091031;28;19912;-75
2022/03/12 02:10:41;;;;;;;20.70;12.82;;;;;;;7.51;79.55;101323.13;5073213;28;20476;-75
2022/03/12 02:13:06;;;;;;;18.17;12.10;;;;;;;7.61;80.22;101319.84;5091080;28;20042;-76
2022/03/12 02:15:32;;;;;;;19.70;12.57;;;;;;;7.61;80.06;101319.84;5091324;28;20032;-75
2022/03/12 02:17:57;;;;;;;21.20;12.50;;;;;;;7.59;80.28;101330.53;5072818;28;20032;-75
2022/03/12 02:20:23;;;;;;;19.58;12.15;;;;;;;7.62;80.53;101335.63;5090543;28;20028;-76
2022/03/12 02:22:53;;;;;;;16.58;11.52;;;;;;;7.67;80.83;101332.63;5090604;28;20472;-75
2022/03/12 02:25:33;;;;;;;16.48;11.40;;;;;;;7.83;80.95;101338.53;5091322;28;20302;-75
2022/03/12 02:28:02;;;;;;;16.88;11.13;;;;;;;7.91;81.02;101338.88;5090424;28;20036;-75
2022/03/12 02:30:36;;;;;;;15.77;11.25;;;;;;;8.03;81.19;101336.28;5090856;28;20036;-77
2022/03/12 02:33:03;;;;;;;18.33;10.77;;;;;;;8.08;81.28;101350.06;5090583;28;20107;-75
2022/03/12 02:35:34;;;;;;;16.17;10.75;;;;;;;8.14;81.28;101343.47;5090676;28;20048;-75
2022/03/12 02:38:01;;;;;;;14.43;9.98;;;;;;;8.18;81.40;101334.31;5072541;28;20032;-77
2022/03/12 02:40:27;;;;;;;18.48;10.10;;;;;;;8.26;81.13;101331.97;5072233;28;20047;-76
2022/03/12 02:42:55;;;;;;;15.18;10.73;;;;;;;8.29;81.43;101329.94;5090722;28;20040;-76
2022/03/12 02:45:22;;;;;;;15.02;10.32;;;;;;;8.30;81.75;101326.34;5090754;28;20040;-76
2022/03/12 02:47:48;;;;;;;14.68;9.48;;;;;;;8.35;81.99;101331.28;5090476;28;20028;-76
2022/03/12 02:50:14;;;;;;;18.67;10.27;;;;;;;8.32;82.26;101333.34;5072261;28;20483;-76
2022/03/12 02:52:41;;;;;;;13.60;9.80;;;;;;;8.32;82.27;101331.53;5072286;28;20059;-76
2022/03/12 02:55:13;;;;;;;14.48;8.98;;;;;;;8.32;82.95;101331.53;5090397;28;20042;-76
2022/03/12 02:57:40;;;;;;;12.73;9.05;;;;;;;8.33;83.03;101340.31;5090410;28;20069;-76
2022/03/12 03:00:08;;;;;;;13.07;8.65;;;;;;;8.37;83.28;101337.31;5090454;28;20048;-76
2022/03/12 03:02:41;;;;;;;10.77;8.50;;;;;;;8.38;82.98;101339.03;5090324;28;20062;-75
2022/03/12 03:05:13;;;;;;;11.50;8.50;;;;;;;8.39;83.01;101338.06;5090428;28;20057;-76
2022/03/12 03:07:39;;;;;;;11.70;7.47;;;;;;;8.43;82.92;101341.34;5091575;28;20024;-76
2022/03/12 03:10:05;;;;;;;11.15;7.20;;;;;;;8.53;82.53;101341.53;5089955;28;20497;-76
2022/03/12 03:12:31;;;;;;;11.32;7.25;;;;;;;8.54;82.65;101341.44;5055140;28;20054;-76
2022/03/12 03:14:57;;;;;;;11.50;7.60;;;;;;;8.63;82.26;101347.88;5089991;28;20468;-77
2022/03/12 03:17:22;;;;;;;12.32;7.28;;;;;;;8.63;82.03;101359.31;5090190;28;20043;-76
2022/03/12 03:19:48;;;;;;;9.18;6.80;;;;;;;8.65;82.02;101345.94;5089721;28;20047;-74
2022/03/12 03:22:13;;;;;;;9.02;6.53;;;;;;;8.66;81.90;101358.25;5090244;28;20063;-74
2022/03/12 03:24:39;;;;;;;8.07;6.03;;;;;;;8.68;81.96;101353.66;5089874;28;20024;-75
2022/03/12 03:27:05;;;;;;;9.05;6.45;;;;;;;8.67;81.70;101344.00;5090230;28;20121;-74
2022/03/12 03:29:33;;;;;;;8.52;5.95;;;;;;;8.65;81.89;101343.28;5089532;28;20066;-76
2022/03/12 03:32:02;;;;;;;9.00;6.13;;;;;;;8.64;81.92;101347.75;5090176;28;20040;-76
2022/03/12 03:34:29;;;;;;;6.97;5.93;;;;;;;8.67;81.86;101349.31;5092994;28;20043;-77
2022/03/12 03:36:55;;;;;;;6.60;5.75;;;;;;;8.68;82.00;101356.31;5092920;28;20496;-77
2022/03/12 03:39:20;;;;;;;9.77;5.78;;;;;;;8.67;81.70;101359.91;5092950;28;20028;-76
2022/03/12 03:41:46;;;;;;;7.97;6.07;;;;;;;8.76;81.59;101361.03;5096449;28;20388;-76
2022/03/12 03:44:13;;;;;;;7.80;6.15;;;;;;;8.73;81.44;101363.94;5096626;28;20059;-76
2022/03/12 03:46:38;;;;;;;7.30;6.00;;;;;;;8.71;81.61;101358.72;5096672;28;20028;-76
2022/03/12 03:49:04;;;;;;;8.70;5.82;;;;;;;8.70;81.65;101374.78;5096639;28;20039;-76
2022/03/12 03:51:30;;;;;;;6.95;5.13;;;;;;;8.68;81.65;101377.53;5078418;28;20036;-76
2022/03/12 03:53:56;;;;;;;10.68;5.70;;;;;;;8.68;81.78;101377.53;5096470;28;20081;-76
2022/03/12 03:56:22;;;;;;;9.15;5.70;;;;;;;8.69;81.82;101375.72;5096631;28;20032;-77
2022/03/12 03:58:48;;;;;;;8.90;5.70;;;;;;;8.67;81.82;101381.13;5096432;28;20044;-78
2022/03/12 04:01:22;;;;;;;5.72;4.95;;;;;;;8.64;82.05;101374.28;5096664;28;20112;-76
2022/03/12 04:03:48;;;;;;;7.60;5.50;;;;;;;8.63;82.07;101377.88;5096652;28;20042;-76
2022/03/12 04:06:19;;;;;;;7.80;4.95;;;;;;;8.62;82.11;101384.13;5096751;28;20031;-76
2022/03/12 04:08:45;;;;;;;6.50;5.43;;;;;;;8.58;82.23;101384.47;5096311;28;20032;-77
2022/03/12 04:11:16;;;;;;;7.40;5.00;;;;;;;8.54;82.78;101383.88;5096153;28;20032;-77
2022/03/12 04:13:42;;;;;;;7.10;5.35;;;;;;;8.52;82.58;101391.06;5096283;28;20080;-77
2022/03/12 04:16:07;;;;;;;13.07;5.38;;;;;;;8.56;82.16;101395.19;5096213;28;20054;-77
2022/03/12 04:18:35;;;;;;;6.95;5.20;;;;;;;8.51;82.67;101391.19;5096357;28;20038;-77
2022/03/12 04:21:00;;;;;;;7.10;5.18;;;;;;;8.46;82.60;101389.75;5096013;28;20028;-77
2022/03/12 04:23:27;;;;;;;6.45;5.72;;;;;;;8.43;82.82;101397.03;5097027;28;20133;-77
2022/03/12 04:25:55;;;;;;;5.78;4.75;;;;;;;8.37;83.31;101394.81;5096026;28;20062;-77
2022/03/12 04:28:21;;;;;;;7.75;5.20;;;;;;;8.30;83.37;101394.44;5095955;28;20028;-78
2022/03/12 04:30:47;;;;;;;7.40;5.40;;;;;;;8.21;83.49;101401.22;5077712;28;20396;-77
2022/03/12 04:33:16;;;;;;;5.60;4.78;;;;;;;8.11;84.13;101405.50;5095714;28;20040;-78
2022/03/12 04:35:42;;;;;;;9.05;5.47;;;;;;;8.02;84.22;101406.16;5095651;28;20048;-77
2022/03/12 04:38:09;;;;;;;5.95;5.13;;;;;;;7.99;84.73;101407.22;5095937;28;20068;-78
2022/03/12 04:40:37;;;;;;;7.25;5.10;;;;;;;7.92;84.83;101406.78;5077466;28;20056;-77
2022/03/12 04:43:06;;;;;;;8.52;4.97;;;;;;;7.83;85.05;101394.19;5095534;28;20073;-77
2022/03/12 04:45:32;;;;;;;6.80;5.18;;;;;;;7.75;85.35;101389.44;5095619;28;20058;-77
2022/03/12 04:47:57;;;;;;;5.70;4.93;;;;;;;7.68;85.82;101400.56;5095495;28;20464;-77
2022/03/12 04:50:23;;;;;;;6.75;5.13;;;;;;;7.57;85.90;101404.78;5095863;28;20035;-76
2022/03/12 04:52:52;;;;;;;5.18;4.47;;;;;;;7.60;86.43;101417.00;5095043;28;20024;-77
2022/03/12 04:55:20;;;;;;;5.78;5.18;;;;;;;7.51;86.33;101422.88;5095531;28;20422;-77
2022/03/12 04:57:46;;;;;;;8.57;5.38;;;;;;;7.45;87.03;101423.31;5095280;28;20052;-77
2022/03/12 05:00:31;;;;;;;8.55;5.22;;;;;;;7.39;87.20;101416.66;5095313;28;20043;-77
2022/03/12 05:03:06;;;;;;;6.45;5.03;;;;;;;7.36;87.17;101423.00;5095414;28;20516;-77
2022/03/12 05:05:31;;;;;;;6.03;4.80;;;;;;;7.33;87.58;101423.22;5095302;28;20075;-77
2022/03/12 05:07:59;;;;;;;6.60;5.32;;;;;;;7.24;87.48;101419.38;5077100;28;20042;-77
2022/03/12 05:10:27;;;;;;;7.10;5.50;;;;;;;7.21;87.92;101438.13;5094806;28;20032;-77
2022/03/12 05:12:59;;;;;;;6.65;5.25;;;;;;;7.14;88.27;101438.63;5094925;28;20115;-77
2022/03/12 05:15:25;;;;;;;8.45;5.15;;;;;;;7.09;88.56;101436.31;5095023;28;20097;-77
2022/03/12 05:17:51;;;;;;;5.22;4.72;;;;;;;7.04;88.82;101444.50;5094946;28;20472;-77
2022/03/12 05:20:24;;;;;;;10.85;5.57;;;;;;;6.95;88.74;101441.63;5095145;28;20043;-77
2022/03/12 05:22:50;;;;;;;9.60;5.75;;;;;;;6.95;89.23;101445.13;5095113;28;20035;-77
2022/03/12 05:25:18;;;;;;;8.70;5.45;;;;;;;6.86;89.35;101451.88;5076591;28;20063;-77
2022/03/12 05:27:51;;;;;;;16.35;5.75;;;;;;;6.77;89.14;101438.41;5095037;28;20036;-77
2022/03/12 05:30:17;;;;;;;9.25;5.28;;;;;;;6.67;90.30;101439.00;5095007;28;20032;-77
2022/03/12 05:32:43;;;;;;;6.45;5.63;;;;;;;6.59;90.42;101440.44;5094385;28;20036;-77
2022/03/12 05:35:09;;;;;;;6.63;5.45;;;;;;;6.58;91.14;101457.25;5094343;28;20050;-77
2022/03/12 05:37:36;;;;;;;7.20;5.78;;;;;;;6.56;91.53;101457.34;5094654;28;20024;-77
2022/03/12 05:40:04;;;;;;;7.68;5.07;;;;;;;6.58;91.95;101454.59;5094160;28;20123;-77
2022/03/12 05:42:29;;;;;;;8.52;6.07;;;;;;;6.50;91.56;101458.56;5094116;28;20424;-77
2022/03/12 05:44:57;;;;;;;13.10;6.72;;;;;;;6.42;91.97;101458.22;5094455;28;20052;-78
2022/03/12 05:47:23;;;;;;;7.93;5.70;;;;;;;6.35;92.21;101459.56;5094813;28;20155;-77
2022/03/12 05:49:49;;;;;;;7.03;5.38;;;;;;;6.31;92.51;101465.97;5094004;28;20055;-77
2022/03/12 05:52:17;;;;;;;7.50;5.18;;;;;;;6.24;92.85;101459.38;5093683;28;20036;-77
2022/03/12 05:54:43;;;;;;;6.75;5.35;;;;;;;6.21;93.11;101465.72;5075794;28;20033;-77
2022/03/12 05:57:09;;;;;;;8.40;5.97;;;;;;;6.22;93.77;101462.09;5093675;28;20457;-77
2022/03/12 05:59:34;;;;;;;9.00;5.90;;;;;;;6.17;93.75;101464.19;5093448;28;20035;-77
2022/03/12 06:02:00;;;;;;;5.90;5.30;;;;;;;6.13;94.24;101468.81;5075708;28;20516;-77
2022/03/12 06:04:28;;;;;;;8.68;5.78;;;;;;;6.13;94.45;101473.25;5092982;28;20494;-78
2022/03/12 06:06:54;;;;;;;7.40;5.53;;;;;;;6.16;94.75;101483.63;5075312;28;20364;-77
2022/03/12 06:09:20;;;;;;;9.68;5.80;;;;;;;6.18;94.41;101479.97;5075235;28;20052;-77
2022/03/12 06:11:45;;;;;;;7.47;5.72;;;;;;;6.24;94.71;101480.50;5075366;28;20035;-77
2022/03/12 06:14:15;;;;;;;7.22;5.35;;;;;;;6.49;94.18;101496.56;5093042;28;20082;-78
2022/03/12 06:16:47;;;;;;;7.90;5.45;;;;;;;6.60;92.70;101493.22;5076256;28;20468;-77
2022/03/12 06:19:15;;;;;;;7.72;5.22;;;;;;;6.74;91.98;101491.50;5093990;28;20038;-78
2022/03/12 06:21:41;;;;;;;9.77;4.78;;;;;;;6.80;91.15;101499.03;5075011;28;20038;-78
2022/03/12 06:24:06;;;;;;;7.88;4.90;;;;;;;6.83;90.57;101499.69;5075535;28;20036;-78
2022/03/12 06:26:35;;;;;;;6.43;4.80;;;;;;;6.85;90.39;101497.81;5093390;28;20031;-79
2022/03/12 06:29:03;;;;;;;6.50;4.95;;;;;;;6.83;90.58;101498.84;5093284;28;20395;-79
2022/03/12 06:31:29;;;;;;;10.65;5.10;;;;;;;6.81;90.53;101504.22;5093562;28;20073;-78
2022/03/12 06:33:54;;;;;;;7.93;4.72;;;;;;;6.84;91.04;101504.03;5092765;28;20032;-78
2022/03/12 06:36:22;;;;;;;7.20;5.05;;;;;;;6.81;90.71;101503.41;5092597;28;20059;-77
2022/03/12 06:38:48;;;;;;;6.57;4.78;;;;;;;6.81;90.94;101509.53;5092509;28;20039;-78
2022/03/12 06:41:13;;;;;;;7.90;4.93;;;;;;;6.86;90.60;101511.88;5093677;28;20024;-78
2022/03/12 06:43:42;;;;;;;15.15;4.53;;;;;;;6.90;90.52;101505.44;5092781;28;20116;-78
2022/03/12 06:46:09;;;;;;;14.95;5.28;;;;;;;6.94;90.15;101503.44;5092326;28;20032;-79
2022/03/12 06:48:37;;;;;;;7.80;5.07;;;;;;;6.97;89.61;101506.75;5092303;28;20478;-78
2022/03/12 06:51:02;;;;;;;9.23;5.18;;;;;;;7.02;89.44;101514.38;5092774;28;20032;-79
2022/03/12 06:53:28;;;;;;;8.32;5.00;;;;;;;7.12;88.74;101514.63;5091774;28;20050;-77
2022/03/12 06:55:53;;;;;;;9.57;4.90;;;;;;;7.12;88.63;101520.78;5092391;28;20027;-79
2022/03/12 06:58:19;;;;;;;7.03;4.70;;;;;;;7.14;88.14;101518.88;5092397;28;20032;-78
2022/03/12 07:00:45;;;;;;;7.32;4.30;;;;;;;7.15;88.41;101522.34;5092441;28;20060;-79
2022/03/12 07:03:11;;;;;;;10.00;4.88;;;;;;;7.30;87.52;101525.78;5091964;28;20517;-78
2022/03/12 07:05:36;;;;;;;7.25;4.30;;;;;;;7.36;87.08;101535.97;5092263;28;20093;-79
2022/03/12 07:08:02;;;;;;;8.95;4.50;;;;;;;7.38;86.81;101534.94;5074100;28;20085;-78
2022/03/12 07:10:29;;;;;;;4.93;4.00;;;;;;;7.42;86.78;101535.59;5092142;28;20039;-78
2022/03/12 07:12:54;;;;;;;10.45;4.30;;;;;;;7.49;86.54;101541.31;5092365;28;20042;-78
2022/03/12 07:15:21;;;;;;;8.35;4.53;;;;;;;7.55;86.18;101543.56;5091678;28;20400;-79
2022/03/12 07:17:47;;;;;;;8.57;4.63;;;;;;;7.59;86.02;101558.31;5091775;28;20365;-79
2022/03/12 07:20:13;;;;;;;7.60;4.38;;;;;;;7.64;85.69;101561.47;5091832;28;20043;-78
2022/03/12 07:22:39;;;;;;;7.22;4.30;;;;;;;7.73;85.34;101567.97;5091659;28;20046;-78
2022/03/12 07:25:07;;;;;;;7.45;4.38;;;;;;;7.80;85.02;101573.72;5091596;28;20110;-79
2022/03/12 07:27:32;;;;;;;10.35;4.60;;;;;;;7.90;84.69;101582.75;5092105;28;20216;-79
2022/03/12 07:30:00;;;;;;;15.05;4.25;;;;;;;8.01;83.86;101582.00;5092511;28;20435;-79
2022/03/12 07:32:26;;;;;;;11.15;4.57;;;;;;;8.07;83.50;101578.94;5091579;28;20476;-80
2022/03/12 07:34:52;;;;;;;10.77;4.60;;;;;;;8.11;83.56;101586.56;5091995;28;20089;-78
2022/03/12 07:37:17;;;;;;;7.32;4.50;;;;;;;8.11;83.53;101589.22;5091792;28;20449;-78
2022/03/12 07:39:43;;;;;;;7.53;4.55;;;;;;;8.15;83.32;101589.00;5091778;28;20342;-80
2022/03/12 07:42:08;;;;;;;7.15;3.92;;;;;;;8.22;83.07;101592.94;5091910;28;20036;-79
2022/03/12 07:44:34;;;;;;;8.52;4.65;;;;;;;8.28;82.95;101592.53;5091538;28;20453;-78
2022/03/12 07:46:59;;;;;;;9.80;4.55;;;;;;;8.35;82.55;101599.09;5091728;28;20032;-79
2022/03/12 07:49:25;;;;;;;11.95;4.50;;;;;;;8.41;82.10;101592.53;5091545;28;20039;-77
2022/03/12 07:51:52;;;;;;;11.48;5.07;;;;;;;8.48;81.83;101596.50;5092248;28;20111;-81
2022/03/12 07:54:18;;;;;;;13.07;4.78;;;;;;;8.54;81.32;101601.38;5092007;28;20067;-79
2022/03/12 07:56:43;;;;;;;8.60;4.72;;;;;;;8.67;80.76;101606.66;5074237;28;20449;-80
2022/03/12 07:59:10;;;;;;;7.90;4.40;;;;;;;8.78;80.61;101606.75;5092455;28;20100;-79
2022/03/12 08:01:36;;;;;;;10.25;4.72;;;;;;;8.86;79.92;101611.50;5091515;28;20044;-80
2022/03/12 08:04:02;;;;;;;11.35;4.78;;;;;;;9.04;78.89;101622.63;5091401;28;20039;-78
2022/03/12 08:06:32;;;;;;;6.72;4.80;;;;;;;9.07;78.16;101618.91;5091615;28;20060;-76
2022/03/12 08:08:57;;;;;;;6.13;4.38;;;;;;;9.23;76.81;101621.31;5091689;28;20510;-77
2022/03/12 08:11:25;;;;;;;8.20;4.30;;;;;;;9.34;76.79;101627.53;5091510;28;20024;-78
2022/03/12 08:13:51;;;;;;;14.43;4.15;;;;;;;9.48;76.69;101637.13;5091704;28;20031;-78
2022/03/12 08:16:16;;;;;;;9.40;4.13;;;;;;;9.73;75.24;101635.31;5091903;28;20036;-79
2022/03/12 08:18:43;;;;;;;5.95;3.88;;;;;;;9.97;74.07;101622.03;5092091;28;20062;-79
2022/03/12 08:21:11;;;;;;;9.13;3.80;;;;;;;10.17;72.93;101627.63;5092499;28;20466;-78
2022/03/12 08:23:36;;;;;;;9.02;3.47;;;;;;;10.32;70.82;101636.25;5091464;28;20355;-78
2022/03/12 08:26:02;;;;;;;13.43;4.28;;;;;;;10.51;71.37;101643.66;5092496;28;20511;-78
2022/03/12 08:28:28;;;;;;;7.13;3.90;;;;;;;10.68;69.40;101648.53;5096193;28;20036;-78
2022/03/12 08:30:53;;;;;;;6.75;3.30;;;;;;;10.64;69.26;101644.41;5095262;28;20430;-77
2022/03/12 08:33:20;;;;;;;5.35;2.95;;;;;;;10.81;68.02;101652.88;5095318;28;20065;-76
2022/03/12 08:35:46;;;;;;;6.10;3.20;;;;;;;11.07;67.69;101656.16;5095060;28;20055;-79
2022/03/12 08:38:11;;;;;;;6.32;3.10;;;;;;;10.73;67.51;101649.03;5095081;28;20042;-77
2022/03/12 08:40:37;;;;;;;13.43;3.33;;;;;;;10.62;68.15;101648.19;5095085;28;20032;-77
2022/03/12 08:43:02;;;;;;;5.25;3.03;;;;;;;10.76;67.70;101664.75;5095061;28;20051;-77
2022/03/12 08:45:28;;;;;;;7.28;3.25;;;;;;;10.65;67.35;101653.25;5095293;28;20119;-77
2022/03/12 08:47:54;;;;;;;9.00;3.38;;;;;;;10.50;67.51;101657.97;5095205;28;20028;-77
2022/03/12 08:50:19;;;;;;;11.52;3.60;;;;;;;10.43;68.10;101670.03;5077174;28;20048;-75
2022/03/12 08:52:45;;;;;;;6.80;3.30;;;;;;;10.39;68.35;101672.09;5094981;28;20455;-77
2022/03/12 08:55:11;;;;;;;8.85;3.20;;;;;;;10.26;68.20;101674.78;5095040;28;20085;-77
2022/03/12 08:57:36;;;;;;;8.90;3.20;;;;;;;10.19;68.57;101686.84;5094787;28;20126;-75
2022/03/12 09:00:05;;;;;;;11.50;3.45;;;;;;;10.30;68.12;101697.53;5095180;28;20074;-76
2022/03/12 09:02:33;;;;;;;8.50;3.15;;;;;;;10.57;67.99;101686.63;5094738;28;20032;-79
2022/03/12 09:04:58;;;;;;;6.97;2.90;;;;;;;10.83;66.78;101688.22;5094972;28;20137;-78
2022/03/12 09:07:23;;;;;;;8.40;2.92;;;;;;;11.07;65.26;101683.63;5095062;28;20028;-76
2022/03/12 09:09:50;;;;;;;9.68;4.53;;;;;;;11.21;64.30;101687.88;5095637;28;20070;-76
2022/03/12 09:12:15;;;;;;;8.52;3.50;;;;;;;11.13;63.66;101686.78;5095190;28;20056;-76
2022/03/12 09:14:41;;;;;;;5.80;3.05;;;;;;;11.17;64.25;101681.09;5076394;28;20201;-76
2022/03/12 09:17:06;;;;;;;7.43;3.55;;;;;;;11.13;64.31;101686.78;5094387;28;20032;-77
2022/03/12 09:19:32;;;;;;;9.80;3.33;;;;;;;11.26;63.93;101688.34;5094245;28;20063;-77
2022/03/12 09:21:58;;;;;;;7.28;3.00;;;;;;;11.72;62.17;101704.22;5093854;28;20444;-77
2022/03/12 09:24:24;;;;;;;6.57;2.85;;;;;;;11.34;63.17;101700.19;5094621;28;20157;-79
2022/03/12 09:26:50;;;;;;;8.70;3.15;;;;;;;11.34;63.75;101695.72;5094105;28;20054;-77
2022/03/12 09:29:15;;;;;;;6.80;4.00;;;;;;;10.77;63.93;101700.19;5094437;28;20452;-76
2022/03/12 09:31:41;;;;;;;5.82;4.07;;;;;;;10.70;65.58;101698.97;5093883;28;20038;-81
2022/03/12 09:34:07;;;;;;;9.48;3.85;;;;;;;11.19;63.68;101689.78;5094114;28;20032;-75
2022/03/12 09:36:33;;;;;;;8.68;4.20;;;;;;;11.53;62.26;101683.59;5093904;28;20131;-74
2022/03/12 09:38:59;;;;;;;8.27;3.78;;;;;;;12.09;61.33;101690.56;5094019;28;20502;-75
2022/03/12 09:41:25;;;;;;;6.28;3.72;;;;;;;12.13;60.78;101700.84;5093947;28;20067;-79
2022/03/12 09:43:51;;;;;;;11.10;4.05;;;;;;;12.21;60.33;101697.56;5076166;28;20479;-80
2022/03/12 09:46:17;;;;;;;9.23;3.20;;;;;;;12.59;59.41;101689.94;5094029;28;20529;-79
2022/03/12 09:48:43;;;;;;;8.38;3.47;;;;;;;13.31;57.70;101688.97;5094104;28;20032;-80
2022/03/12 09:51:08;;;;;;;8.25;3.25;;;;;;;14.11;54.56;101692.50;5094176;28;20028;-79
2022/03/12 09:53:34;;;;;;;7.22;3.50;;;;;;;14.47;53.04;101699.94;5093457;28;20499;-80
2022/03/12 09:56:00;;;;;;;7.68;3.38;;;;;;;13.85;53.83;101697.56;5094085;28;20048;-82
2022/03/12 09:58:25;;;;;;;6.65;3.35;;;;;;;14.00;54.97;101708.69;5094055;28;20110;-80
2022/03/12 10:00:51;;;;;;;6.65;3.20;;;;;;;14.27;53.19;101709.78;5094235;28;20028;-79
2022/03/12 10:03:16;;;;;;;5.18;3.40;;;;;;;13.48;53.88;101710.72;5102597;28;20463;-77
2022/03/12 10:05:42;;;;;;;5.40;3.13;;;;;;;13.56;53.90;101705.53;5095556;28;20036;-77
2022/03/12 10:08:07;;;;;;;4.72;2.50;;;;;;;13.52;54.03;101710.28;5103567;28;20028;-80
2022/03/12 10:10:34;;;;;;;6.60;2.97;;;;;;;12.95;56.18;101707.25;5111073;28;20046;-75
2022/03/12 10:12:59;;;;;;;6.55;2.67;;;;;;;13.21;55.04;101706.78;5100741;28;20380;-80
2022/03/12 10:15:25;;;;;;;7.93;3.20;;;;;;;13.11;54.67;101706.78;5094391;28;20020;-82
2022/03/12 10:17:51;;;;;;;9.50;3.40;;;;;;;12.34;56.91;101719.53;5094026;28;20450;-81
2022/03/12 10:20:17;;;;;;;8.73;2.85;;;;;;;12.33;57.90;101720.53;5094372;28;20096;-82
2022/03/12 10:22:45;;;;;;;4.82;2.80;;;;;;;12.47;57.24;101716.69;5093991;28;20056;-78
2022/03/12 10:25:12;;;;;;;8.57;3.25;;;;;;;12.50;57.63;101728.94;5093385;28;20102;-79
2022/03/12 10:27:38;;;;;;;7.88;3.75;;;;;;;12.21;58.85;101726.03;5093495;28;20051;-78
2022/03/12 10:30:06;;;;;;;14.80;3.60;;;;;;;12.51;58.30;101717.28;5094001;28;20028;-83
2022/03/12 10:32:42;;;;;;;6.38;3.47;;;;;;;12.86;56.90;101718.75;5093436;28;20046;-83
2022/03/12 10:35:10;;;;;;;6.18;2.97;;;;;;;13.62;54.28;101709.50;5092528;28;20530;-75
2022/03/12 10:37:35;;;;;;;7.88;3.03;;;;;;;14.60;51.83;101716.53;5092988;28;20404;-81
2022/03/12 10:40:06;;;;;;;6.72;3.17;;;;;;;15.55;49.37;101715.63;5093330;28;20059;-79
2022/03/12 10:42:33;;;;;;;8.45;3.63;;;;;;;16.14;46.93;101713.41;5093006;28;20032;-79
2022/03/12 10:45:07;;;;;;;8.27;3.78;;;;;;;15.94;46.82;101716.22;5093401;28;20451;-77
2022/03/12 10:47:38;;;;;;;8.70;3.53;;;;;;;16.00;46.04;101718.31;5092446;28;20031;-76
2022/03/12 10:50:09;;;;;;;13.75;3.60;;;;;;;16.22;45.98;101719.66;5092133;28;20039;-75
2022/03/12 10:52:39;;;;;;;;;;;;;;;16.76;44.44;101721.38;5093045;28;20024;-75
2022/03/12 10:55:18;;;;;;;6.30;3.10;;;;;;;17.35;43.24;101728.81;5092583;28;20364;-75
2022/03/12 10:57:59;;;;;;;9.63;2.80;;;;;;;16.70;44.08;101727.41;5092989;28;20020;-76
2022/03/12 11:00:27;;;;;;;8.25;2.80;;;;;;;16.25;44.91;101729.25;5073998;28;20059;-76
2022/03/12 11:02:54;;;;;;;8.45;2.20;;;;;;;16.25;45.83;101720.34;5092285;28;20119;-78
2022/03/12 11:05:35;;;;;;;7.78;2.50;;;;;;;15.92;45.77;101720.06;5092363;28;20032;-75
2022/03/12 11:08:21;;;;;;;8.98;2.70;;;;;;;15.45;46.72;101721.88;5092239;28;20028;-76
2022/03/12 11:10:55;;;;;;;10.20;2.45;;;;;;;15.50;46.78;101722.25;5091985;28;20437;-76
2022/03/12 11:13:42;;;;;;;8.25;2.40;;;;;;;15.41;47.16;101723.16;5092043;28;20088;-77
2022/03/12 11:16:09;;;;;;;7.75;2.70;;;;;;;15.61;47.84;101731.94;5092247;28;20097;-78
2022/03/12 11:18:35;;;;;;;5.57;2.40;;;;;;;16.34;44.99;101728.31;5092448;28;20111;-76
2022/03/12 11:21:01;;;;;;;6.07;2.47;;;;;;;16.71;44.28;101729.94;5073895;28;20120;-77
2022/03/12 11:23:30;;;;;;;4.97;2.58;;;;;;;17.01;43.50;101746.59;5092195;28;20024;-76
2022/03/12 11:25:58;;;;;;;6.95;2.40;;;;;;;15.89;44.92;101742.69;5092197;28;20028;-76